Time;durP1;ratioP1;P1;durP2;ratioP2;P2;SDS_P1;SDS_P2;PMS_P1;PMS_P2;Temp;Humidity;BMP_temperature;BMP_pressure;BME280_temperature;BME280_humidity;BME280_pressure;Samples;Min_cycle;Max_cycle;Signal;HPM_P1;HPM_P2
2023/12/29 00:01:06;;;;;;;0.80;0.53;;;;;;;-143.84;50.22;45115.72;5068333;28;20471;-61
2023/12/29 00:03:33;;;;;;;0.80;0.50;;;;;;;-143.84;50.23;45123.34;5068582;28;20946;-61
2023/12/29 00:06:02;;;;;;;0.80;0.60;;;;;;;-143.84;50.11;45110.00;5068485;28;20523;-61
2023/12/29 00:08:29;;;;;;;2.27;0.57;;;;;;;-143.84;49.99;45132.84;5068695;28;20514;-61
2023/12/29 00:10:58;;;;;;;0.83;0.70;;;;;;;-143.84;50.32;45144.28;5068400;28;20989;-61
2023/12/29 00:13:25;;;;;;;1.10;1.00;;;;;;;-143.84;50.43;45129.03;5068207;28;20520;-61
2023/12/29 00:15:53;;;;;;;0.80;0.60;;;;;;;-143.84;50.05;45129.03;5068563;28;20441;-62
2023/12/29 00:18:20;;;;;;;2.03;1.00;;;;;;;-143.84;50.69;45123.34;5068474;28;20894;-61
2023/12/29 00:20:47;;;;;;;0.80;0.40;;;;;;;-143.84;50.76;45134.75;5067936;28;20437;-61
2023/12/29 00:23:14;;;;;;;0.93;0.60;;;;;;;-143.84;50.89;45136.66;5068208;28;21001;-61
2023/12/29 00:25:41;;;;;;;0.93;0.77;;;;;;;-143.84;50.91;45129.03;5070345;28;20449;-62
2023/12/29 00:28:10;;;;;;;0.83;0.60;;;;;;;-143.84;51.02;45125.22;5072037;28;20490;-62
2023/12/29 00:30:40;;;;;;;1.30;1.17;;;;;;;-143.84;51.26;45115.72;5072397;28;20459;-61
2023/12/29 00:33:07;;;;;;;0.80;0.60;;;;;;;-143.84;50.84;45115.72;5072089;28;20425;-61
2023/12/29 00:35:34;;;;;;;0.83;0.50;;;;;;;-143.84;50.49;45136.66;5072111;28;20433;-61
2023/12/29 00:38:01;;;;;;;1.30;0.70;;;;;;;-143.84;50.59;45125.22;5071630;28;20885;-61
2023/12/29 00:40:28;;;;;;;1.47;0.87;;;;;;;-143.84;50.82;45127.13;5072328;28;20429;-62
2023/12/29 00:42:55;;;;;;;0.80;0.70;;;;;;;-143.84;51.45;45121.44;5071518;28;20557;-62
2023/12/29 00:45:23;;;;;;;1.07;0.73;;;;;;;-143.84;51.90;45102.38;5071599;28;20528;-62
2023/12/29 00:47:51;;;;;;;2.40;1.47;;;;;;;-143.84;52.34;45119.53;5072048;28;20437;-62
2023/12/29 00:50:18;;;;;;;1.97;1.00;;;;;;;-143.84;52.70;45106.19;5071882;28;20488;-62
2023/12/29 00:52:45;;;;;;;1.00;0.73;;;;;;;-143.84;52.83;45142.38;5071705;28;20437;-62
2023/12/29 00:55:12;;;;;;;0.80;0.60;;;;;;;-143.84;52.76;45111.91;5071453;28;20476;-61
2023/12/29 00:57:39;;;;;;;0.80;0.50;;;;;;;-143.84;52.84;45115.72;5071718;28;20522;-61
2023/12/29 01:00:09;;;;;;;8.33;1.43;;;;;;;-143.84;52.53;45111.91;5071423;28;20502;-62
2023/12/29 01:02:37;;;;;;;0.90;0.63;;;;;;;-143.84;52.15;45102.38;5071286;28;21101;-61
2023/12/29 01:05:04;;;;;;;1.77;1.23;;;;;;;-143.84;52.46;45119.53;5071372;28;20890;-62
2023/12/29 01:07:31;;;;;;;1.50;1.40;;;;;;;-143.84;53.04;45123.34;5071669;28;20512;-62
2023/12/29 01:09:59;;;;;;;0.80;0.50;;;;;;;-143.84;52.94;45136.66;5071055;28;20441;-62
2023/12/29 01:12:26;;;;;;;1.37;0.67;;;;;;;-143.84;52.70;45087.16;5071095;28;20445;-62
2023/12/29 01:14:53;;;;;;;0.90;0.70;;;;;;;-143.84;52.98;45125.22;5071301;28;20506;-62
2023/12/29 01:17:22;;;;;;;1.00;0.90;;;;;;;-143.84;53.16;45123.34;5071082;28;20512;-62
2023/12/29 01:19:50;;;;;;;0.97;0.57;;;;;;;-143.84;52.43;45130.94;5071149;28;20452;-61
2023/12/29 01:22:17;;;;;;;1.47;1.00;;;;;;;-143.84;52.84;45125.22;5070506;28;20469;-61
2023/12/29 01:24:44;;;;;;;0.90;0.70;;;;;;;-143.84;52.73;45111.91;5070567;28;20988;-61
2023/12/29 01:27:11;;;;;;;1.07;0.87;;;;;;;-143.84;53.00;45113.81;5070820;28;20897;-62
2023/12/29 01:29:39;;;;;;;0.80;0.60;;;;;;;-143.84;53.05;45134.75;5070647;28;20510;-61
2023/12/29 01:32:07;;;;;;;1.10;0.90;;;;;;;-143.84;53.14;45127.13;5070160;28;20452;-61
2023/12/29 01:34:35;;;;;;;0.90;0.80;;;;;;;-143.84;53.28;45125.22;5070380;28;20445;-61
2023/12/29 01:37:04;;;;;;;1.20;0.90;;;;;;;-143.84;52.56;45125.22;5070237;28;20954;-62
2023/12/29 01:39:32;;;;;;;3.37;2.63;;;;;;;-143.84;52.32;45136.66;5070084;28;20520;-61
2023/12/29 01:41:59;;;;;;;0.80;0.60;;;;;;;-143.84;51.69;45148.09;5070605;28;20481;-61
2023/12/29 01:44:26;;;;;;;1.07;0.97;;;;;;;-143.84;50.97;45108.09;5069936;28;20433;-61
2023/12/29 01:46:56;;;;;;;0.90;0.80;;;;;;;-143.84;50.59;45136.66;5070154;28;20957;-61
2023/12/29 01:49:23;;;;;;;0.90;0.70;;;;;;;-143.84;50.47;45125.22;5069931;28;20502;-62
2023/12/29 01:51:52;;;;;;;1.10;0.80;;;;;;;-143.84;49.59;45110.00;5069893;28;20437;-61
2023/12/29 01:54:22;;;;;;;3.70;1.80;;;;;;;-143.84;48.87;45121.44;5070352;28;20439;-61
2023/12/29 01:56:51;;;;;;;1.43;0.93;;;;;;;-143.84;48.19;45113.81;5061209;28;20520;-62
2023/12/29 01:59:20;;;;;;;0.80;0.60;;;;;;;-143.84;47.45;45132.84;5069870;28;20437;-61
2023/12/29 02:01:47;;;;;;;0.80;0.60;;;;;;;-143.84;46.48;45119.53;5070072;28;20845;-62
2023/12/29 02:04:16;;;;;;;0.87;0.53;;;;;;;-143.84;45.94;45157.59;5070147;28;20433;-62
2023/12/29 02:06:43;;;;;;;1.10;0.70;;;;;;;-143.84;45.52;45134.75;5069508;28;20524;-62
2023/12/29 02:09:12;;;;;;;0.80;0.50;;;;;;;-143.84;44.70;45106.19;5069593;28;20505;-61
2023/12/29 02:11:41;;;;;;;0.80;0.50;;;;;;;-143.84;44.65;45144.28;5069576;28;20437;-62
2023/12/29 02:14:08;;;;;;;1.30;1.07;;;;;;;-143.84;44.08;45121.44;5069667;28;20445;-62
2023/12/29 02:16:46;;;;;;;1.20;0.80;;;;;;;-143.84;44.03;45111.91;5069464;28;20452;-62
2023/12/29 02:19:26;;;;;;;1.40;0.80;;;;;;;-143.84;43.73;45146.19;5069926;28;20449;-61
2023/12/29 02:21:53;;;;;;;0.80;0.50;;;;;;;-143.84;43.94;45096.66;5068981;28;20484;-61
2023/12/29 02:24:20;;;;;;;1.30;1.20;;;;;;;-143.84;43.70;45121.44;5069318;28;20510;-62
2023/12/29 02:26:54;;;;;;;0.80;0.40;;;;;;;-143.84;43.67;45121.44;5069473;28;21161;-62
2023/12/29 02:29:25;;;;;;;1.07;0.63;;;;;;;-143.84;43.73;45087.16;5069207;28;20452;-62
2023/12/29 02:31:56;;;;;;;1.00;0.70;;;;;;;-143.84;43.82;45117.63;5069142;28;20457;-62
2023/12/29 02:34:25;;;;;;;1.00;0.53;;;;;;;-143.84;43.90;45130.94;5068633;28;21011;-63
2023/12/29 02:36:53;;;;;;;2.03;0.90;;;;;;;-143.84;43.43;45127.13;5059016;28;20982;-61
2023/12/29 02:39:21;;;;;;;0.80;0.40;;;;;;;-143.84;43.64;45113.81;5068742;28;20474;-61
2023/12/29 02:41:49;;;;;;;1.00;0.60;;;;;;;-143.84;43.35;45121.44;5069484;28;20481;-61
2023/12/29 02:44:16;;;;;;;0.80;0.67;;;;;;;-143.84;43.39;45108.09;5068722;28;20445;-61
2023/12/29 02:46:43;;;;;;;0.80;0.57;;;;;;;-143.84;43.78;45108.09;5067805;28;20437;-62
2023/12/29 02:49:12;;;;;;;1.00;0.60;;;;;;;-143.84;43.39;45121.44;5067548;28;20901;-62
2023/12/29 02:51:40;;;;;;;0.80;0.50;;;;;;;-143.84;43.60;45123.34;5068726;28;20441;-62
2023/12/29 02:54:07;;;;;;;0.90;0.50;;;;;;;-143.84;43.59;45134.75;5077419;28;20492;-61
2023/12/29 02:56:35;;;;;;;0.80;0.60;;;;;;;-143.84;43.24;45113.81;5067934;28;20436;-62
2023/12/29 02:59:03;;;;;;;1.30;0.50;;;;;;;-143.84;42.61;45113.81;5068769;28;20444;-62
2023/12/29 03:01:31;;;;;;;0.90;0.70;;;;;;;-143.84;42.85;45113.81;5068394;28;20502;-62
2023/12/29 03:03:58;;;;;;;1.27;1.17;;;;;;;-143.84;42.37;45117.63;5068934;28;20930;-62
2023/12/29 03:06:26;;;;;;;0.87;0.63;;;;;;;-143.84;42.58;45130.94;5068843;28;20441;-61
2023/12/29 03:08:53;;;;;;;0.80;0.50;;;;;;;-143.84;42.11;45148.09;5068737;28;20441;-61
2023/12/29 03:11:20;;;;;;;1.27;0.80;;;;;;;-143.84;42.67;45121.44;5068902;28;20510;-61
2023/12/29 03:13:47;;;;;;;0.90;0.70;;;;;;;-143.84;42.49;45123.34;5068505;28;20439;-61
2023/12/29 03:16:15;;;;;;;1.00;0.90;;;;;;;-143.84;43.19;45127.13;5068759;28;20437;-61
2023/12/29 03:18:42;;;;;;;0.80;0.60;;;;;;;-143.84;44.13;45119.53;5068988;28;20488;-61
2023/12/29 03:21:10;;;;;;;0.80;0.50;;;;;;;-143.84;44.07;45111.91;5049724;28;20532;-61
2023/12/29 03:23:37;;;;;;;1.10;1.00;;;;;;;-143.84;44.59;45142.38;5049018;28;20485;-61
2023/12/29 03:26:04;;;;;;;0.80;0.57;;;;;;;-143.84;44.14;45121.44;5067681;28;20452;-61
2023/12/29 03:28:31;;;;;;;0.80;0.60;;;;;;;-143.84;43.91;45121.44;5068907;28;20495;-61
2023/12/29 03:30:58;;;;;;;0.80;0.43;;;;;;;-143.84;43.37;45087.16;5068952;28;20440;-61
2023/12/29 03:33:27;;;;;;;0.87;0.63;;;;;;;-143.84;44.02;45130.94;5069167;28;21239;-61
2023/12/29 03:35:54;;;;;;;0.80;0.60;;;;;;;-143.84;44.35;45130.94;5068659;28;20460;-61
2023/12/29 03:38:21;;;;;;;0.80;0.50;;;;;;;-143.84;44.30;45119.53;5068863;28;20845;-61
2023/12/29 03:40:48;;;;;;;1.00;0.80;;;;;;;-143.84;44.02;45127.13;5068466;28;20456;-61
2023/12/29 03:43:15;;;;;;;1.63;1.43;;;;;;;-143.84;44.43;45146.19;5069063;28;20513;-61
2023/12/29 03:45:42;;;;;;;0.80;0.50;;;;;;;-143.84;44.20;45113.81;5068607;28;20451;-61
2023/12/29 03:48:09;;;;;;;2.30;1.00;;;;;;;-143.84;44.68;45123.34;5068682;28;20444;-61
2023/12/29 03:50:38;;;;;;;2.40;0.90;;;;;;;-143.84;44.65;45127.13;5068500;28;20986;-62
2023/12/29 03:53:06;;;;;;;0.90;0.60;;;;;;;-143.84;44.60;45123.34;5068929;28;20532;-61
2023/12/29 03:55:33;;;;;;;1.07;0.93;;;;;;;-143.84;45.32;45129.03;5068750;28;20979;-61
2023/12/29 03:58:01;;;;;;;3.37;1.63;;;;;;;-143.84;45.70;45123.34;5068279;28;20491;-61
2023/12/29 04:00:28;;;;;;;1.17;0.80;;;;;;;-143.84;47.12;45119.53;5068988;28;20425;-61
2023/12/29 04:02:56;;;;;;;1.37;0.97;;;;;;;-143.84;48.17;45125.22;5072531;28;20479;-61
2023/12/29 04:05:23;;;;;;;4.50;1.53;;;;;;;-143.84;48.53;45123.34;5072513;28;20448;-62
2023/12/29 04:07:51;;;;;;;1.77;1.20;;;;;;;-143.84;49.48;45144.28;5072656;28;20440;-61
2023/12/29 04:10:18;;;;;;;0.90;0.60;;;;;;;-143.84;46.33;45132.84;5073014;28;20436;-61
2023/12/29 04:12:45;;;;;;;1.33;0.60;;;;;;;-143.84;43.87;45132.84;5072126;28;20490;-61
2023/12/29 04:15:13;;;;;;;0.90;0.63;;;;;;;-143.84;42.61;45132.84;5072074;28;20538;-61
2023/12/29 04:17:40;;;;;;;0.80;0.40;;;;;;;-143.84;42.00;45119.53;5072005;28;20549;-62
2023/12/29 04:20:08;;;;;;;0.80;0.60;;;;;;;-143.84;41.85;45140.47;5072416;28;20470;-61
2023/12/29 04:22:35;;;;;;;0.80;0.60;;;;;;;-143.84;41.71;45130.94;5072243;28;20590;-61
2023/12/29 04:25:04;;;;;;;0.80;0.50;;;;;;;-143.84;41.12;45140.47;5072286;28;20497;-61
2023/12/29 04:27:31;;;;;;;1.00;0.57;;;;;;;-143.84;40.80;45106.19;5072236;28;20436;-61
2023/12/29 04:29:58;;;;;;;0.80;0.50;;;;;;;-143.84;40.39;45113.81;5072117;28;20502;-62
2023/12/29 04:32:25;;;;;;;0.80;0.50;;;;;;;-143.84;40.03;45121.44;5071849;28;20505;-61
2023/12/29 04:34:52;;;;;;;0.80;0.50;;;;;;;-143.84;39.77;45119.53;5072095;28;20505;-61
2023/12/29 04:37:19;;;;;;;1.63;0.70;;;;;;;-143.84;39.27;45134.75;5072009;28;20441;-61
2023/12/29 04:39:46;;;;;;;0.80;0.50;;;;;;;-143.84;38.93;45108.09;5071837;28;20441;-61
2023/12/29 04:42:16;;;;;;;0.80;0.60;;;;;;;-143.84;39.06;45102.38;5072268;28;20502;-61
2023/12/29 04:44:43;;;;;;;0.90;0.50;;;;;;;-143.84;39.18;45130.94;5071858;28;20477;-62
2023/12/29 04:47:11;;;;;;;0.80;0.50;;;;;;;-143.84;38.67;45125.22;5071807;28;20443;-60
2023/12/29 04:49:38;;;;;;;0.80;0.50;;;;;;;-143.84;38.54;45113.81;5071518;28;20433;-61
2023/12/29 04:52:06;;;;;;;0.90;0.80;;;;;;;-143.84;38.88;45098.56;5071388;28;20530;-62
2023/12/29 04:54:33;;;;;;;0.80;0.60;;;;;;;-143.84;39.03;45117.63;5071877;28;20502;-61
2023/12/29 04:57:00;;;;;;;1.90;1.67;;;;;;;-143.84;38.69;45121.44;5071292;28;20962;-61
2023/12/29 04:59:29;;;;;;;1.20;0.70;;;;;;;-143.84;38.58;45110.00;5070847;28;20433;-61
2023/12/29 05:01:56;;;;;;;1.30;0.83;;;;;;;-143.84;38.72;45110.00;5071399;28;20437;-62
2023/12/29 05:04:23;;;;;;;1.83;0.97;;;;;;;-143.84;38.81;45110.00;5071118;28;20913;-62
2023/12/29 05:06:50;;;;;;;1.00;0.70;;;;;;;-143.84;38.82;45108.09;5070924;28;20445;-62
2023/12/29 05:09:17;;;;;;;1.23;1.13;;;;;;;-143.84;38.79;45110.00;5071157;28;21020;-62
2023/12/29 05:11:44;;;;;;;1.43;0.60;;;;;;;-143.84;39.06;45106.19;5070879;28;20796;-61
2023/12/29 05:14:11;;;;;;;0.87;0.60;;;;;;;-143.84;38.92;45110.00;5071232;28;20452;-62
2023/12/29 05:16:40;;;;;;;0.93;0.80;;;;;;;-143.84;38.70;45113.81;5070993;28;20491;-62
2023/12/29 05:19:07;;;;;;;0.80;0.53;;;;;;;-143.84;38.81;45110.00;5071336;28;20446;-62
2023/12/29 05:21:34;;;;;;;8.10;0.70;;;;;;;-143.84;38.46;45111.91;5071401;28;20445;-62
2023/12/29 05:24:01;;;;;;;0.80;0.60;;;;;;;-143.84;38.57;45123.34;5070671;28;21194;-62
2023/12/29 05:26:28;;;;;;;0.80;0.60;;;;;;;-143.84;38.19;45113.81;5070985;28;20495;-61
2023/12/29 05:28:55;;;;;;;0.80;0.50;;;;;;;-143.84;38.60;45096.66;5071233;28;20433;-62
2023/12/29 05:31:23;;;;;;;1.83;0.60;;;;;;;-143.84;38.83;45104.28;5059429;28;20444;-62
2023/12/29 05:33:52;;;;;;;3.33;0.73;;;;;;;-143.84;38.90;45094.78;5071068;28;20437;-62
2023/12/29 05:36:19;;;;;;;0.80;0.60;;;;;;;-143.84;39.25;45102.38;5070546;28;20886;-61
2023/12/29 05:38:47;;;;;;;1.20;1.10;;;;;;;-143.84;39.05;45098.56;5070285;28;20444;-61
2023/12/29 05:41:15;;;;;;;0.87;0.70;;;;;;;-143.84;39.23;45113.81;5070314;28;20445;-62
2023/12/29 05:43:42;;;;;;;0.90;0.60;;;;;;;-143.84;39.84;45104.28;5070110;28;20479;-62
2023/12/29 05:46:11;;;;;;;1.27;0.90;;;;;;;-143.84;39.87;45098.56;5070635;28;20795;-62
2023/12/29 05:48:37;;;;;;;1.10;0.93;;;;;;;-143.84;40.20;45089.06;5070223;28;20515;-61
2023/12/29 05:51:10;;;;;;;1.10;1.00;;;;;;;-143.84;40.19;45111.91;5069707;28;20444;-62
2023/12/29 05:53:37;;;;;;;2.20;0.70;;;;;;;-143.84;40.43;45140.47;5070174;28;20441;-61
2023/12/29 05:56:05;;;;;;;0.90;0.80;;;;;;;-143.84;40.51;45111.91;5070062;28;20436;-61
2023/12/29 05:58:32;;;;;;;1.57;0.93;;;;;;;-143.84;40.26;45094.78;5050489;28;20518;-62
2023/12/29 06:01:00;;;;;;;0.80;0.50;;;;;;;-143.84;40.30;45087.16;5069478;28;20444;-61
2023/12/29 06:03:27;;;;;;;1.67;1.13;;;;;;;-143.84;40.61;45111.91;5069957;28;20559;-61
2023/12/29 06:05:55;;;;;;;1.00;0.80;;;;;;;-143.84;40.87;45104.28;5069587;28;20445;-61
2023/12/29 06:08:23;;;;;;;0.90;0.50;;;;;;;-143.84;40.79;45079.53;5064620;28;20468;-61
2023/12/29 06:10:49;;;;;;;0.80;0.40;;;;;;;-143.84;40.93;45123.34;5069334;28;20444;-62
2023/12/29 06:13:16;;;;;;;1.53;1.10;;;;;;;-143.84;40.97;45104.28;5069571;28;20445;-62
2023/12/29 06:15:44;;;;;;;0.90;0.73;;;;;;;-143.84;40.82;45106.19;5069931;28;20436;-62
2023/12/29 06:18:11;;;;;;;1.10;0.83;;;;;;;-143.84;40.94;45089.06;5069231;28;21000;-61
2023/12/29 06:20:38;;;;;;;0.90;0.70;;;;;;;-143.84;40.73;45115.72;5069286;28;20437;-62
2023/12/29 06:23:05;;;;;;;1.40;1.30;;;;;;;-143.84;40.77;45106.19;5068629;28;20529;-61
2023/12/29 06:25:34;;;;;;;2.23;1.10;;;;;;;-143.84;41.08;45121.44;5069248;28;20440;-61
2023/12/29 06:28:02;;;;;;;1.13;1.03;;;;;;;-143.84;40.87;45108.09;5069464;28;20869;-61
2023/12/29 06:30:30;;;;;;;0.80;0.60;;;;;;;-143.84;41.26;45054.78;5069230;28;20456;-61
2023/12/29 06:32:57;;;;;;;1.87;1.77;;;;;;;-143.84;41.00;45121.44;5080229;28;20843;-61
2023/12/29 06:35:24;;;;;;;0.80;0.50;;;;;;;-143.84;40.97;45090.97;5082828;28;20440;-61
2023/12/29 06:37:51;;;;;;;0.80;0.50;;;;;;;-143.84;41.08;45083.34;5069324;28;20996;-61
2023/12/29 06:40:18;;;;;;;1.30;0.90;;;;;;;-143.84;41.08;45110.00;5068806;28;20496;-61
2023/12/29 06:42:47;;;;;;;0.93;0.80;;;;;;;-143.84;40.96;45098.56;5068778;28;20440;-61
2023/12/29 06:45:14;;;;;;;1.10;0.83;;;;;;;-143.84;41.14;45108.09;5069642;28;20444;-61
2023/12/29 06:47:41;;;;;;;14.63;1.20;;;;;;;-143.84;40.67;45104.28;5069399;28;20445;-61
2023/12/29 06:50:12;;;;;;;0.90;0.60;;;;;;;-143.84;40.71;45117.63;5068581;28;20448;-60
2023/12/29 06:52:40;;;;;;;0.87;0.67;;;;;;;-143.84;40.60;45081.44;5067659;28;20451;-61
2023/12/29 06:55:08;;;;;;;0.90;0.77;;;;;;;-143.84;40.46;45138.56;5068684;28;20437;-62
2023/12/29 06:57:35;;;;;;;1.10;0.80;;;;;;;-143.84;40.25;45102.38;5069091;28;20461;-61
2023/12/29 07:00:05;;;;;;;0.80;0.60;;;;;;;-143.84;40.23;45092.88;5068764;28;20437;-61
2023/12/29 07:02:32;;;;;;;1.10;0.90;;;;;;;-143.84;40.20;45121.44;5069205;28;20839;-62
2023/12/29 07:04:59;;;;;;;1.03;0.90;;;;;;;-143.84;39.75;45079.53;5068873;28;20484;-61
2023/12/29 07:07:26;;;;;;;1.07;0.97;;;;;;;-143.84;40.12;45094.78;5068800;28;20510;-60
2023/12/29 07:09:53;;;;;;;1.07;0.97;;;;;;;-143.84;39.75;45100.47;5068744;28;20429;-62
2023/12/29 07:12:21;;;;;;;0.80;0.60;;;;;;;-143.84;39.66;45142.38;5068988;28;20448;-62
2023/12/29 07:14:48;;;;;;;0.90;0.60;;;;;;;-143.84;39.75;45079.53;5068467;28;21170;-62
2023/12/29 07:17:17;;;;;;;1.00;0.90;;;;;;;-143.84;39.53;45106.19;5068301;28;21001;-61
2023/12/29 07:19:44;;;;;;;0.87;0.63;;;;;;;-143.84;39.53;45079.53;5067321;28;20445;-62
2023/12/29 07:22:11;;;;;;;2.13;1.10;;;;;;;-143.84;39.50;45077.63;5067158;28;20437;-61
2023/12/29 07:24:40;;;;;;;0.80;0.60;;;;;;;-143.84;39.27;45104.28;5067271;28;20480;-62
2023/12/29 07:27:08;;;;;;;0.80;0.50;;;;;;;-143.84;39.34;45102.38;5067606;28;20444;-61
2023/12/29 07:29:35;;;;;;;1.67;0.70;;;;;;;-143.84;39.21;45102.38;5067720;28;20468;-61
2023/12/29 07:32:02;;;;;;;0.97;0.83;;;;;;;-143.84;39.49;45111.91;5067678;28;20437;-61
2023/12/29 07:34:31;;;;;;;16.03;1.60;;;;;;;-143.84;39.60;45104.28;5070696;28;20444;-61
2023/12/29 07:36:59;;;;;;;0.80;0.53;;;;;;;-143.84;39.17;45083.34;5072408;28;20441;-61
2023/12/29 07:39:26;;;;;;;1.40;1.27;;;;;;;-143.84;39.18;45073.81;5072460;28;20464;-62
2023/12/29 07:41:53;;;;;;;1.47;1.33;;;;;;;-143.84;39.15;45102.38;5072421;28;20444;-61
2023/12/29 07:44:20;;;;;;;1.00;0.90;;;;;;;-143.84;39.29;45096.66;5068218;28;20472;-62
2023/12/29 07:46:48;;;;;;;1.37;0.90;;;;;;;-143.84;38.81;45062.41;5072779;28;20436;-61
2023/12/29 07:49:15;;;;;;;1.77;1.07;;;;;;;-143.84;38.56;45089.06;5072999;28;20441;-61
2023/12/29 07:51:47;;;;;;;0.80;0.50;;;;;;;-143.84;38.77;45096.66;5072840;28;20436;-62
2023/12/29 07:54:15;;;;;;;0.87;0.60;;;;;;;-143.84;38.79;45071.91;5065568;28;20444;-62
2023/12/29 07:56:42;;;;;;;0.87;0.63;;;;;;;-143.84;38.67;45070.00;5072260;28;20445;-62
2023/12/29 07:59:09;;;;;;;0.87;0.63;;;;;;;-143.84;38.64;45083.34;5072781;28;20432;-62
2023/12/29 08:01:38;;;;;;;1.73;0.80;;;;;;;-143.84;38.31;45096.66;5068606;28;20440;-61
2023/12/29 08:04:06;;;;;;;1.47;1.30;;;;;;;-143.84;38.14;45098.56;5072267;28;20480;-61
2023/12/29 08:06:34;;;;;;;1.63;1.07;;;;;;;-143.84;38.02;45094.78;5072130;28;20491;-61
2023/12/29 08:09:03;;;;;;;1.40;0.83;;;;;;;-143.84;37.87;45092.88;5071908;28;20497;-61
2023/12/29 08:11:30;;;;;;;3.27;1.10;;;;;;;-143.84;37.70;45062.41;5071805;28;20445;-61
2023/12/29 08:13:57;;;;;;;1.97;0.90;;;;;;;-143.84;37.38;45081.44;5071989;28;20851;-62
2023/12/29 08:16:24;;;;;;;2.40;1.13;;;;;;;-143.84;37.38;45073.81;5070459;28;20440;-62
2023/12/29 08:18:52;;;;;;;3.03;1.30;;;;;;;-143.84;37.08;45064.31;5071654;28;20483;-61
2023/12/29 08:21:19;;;;;;;1.20;0.70;;;;;;;-143.84;36.64;45060.50;5072014;28;20437;-62
2023/12/29 08:23:47;;;;;;;0.90;0.70;;;;;;;-143.84;36.67;45073.81;5071704;28;20483;-61
2023/12/29 08:26:16;;;;;;;0.93;0.80;;;;;;;-143.84;36.50;45056.69;5072032;28;20464;-62
2023/12/29 08:28:43;;;;;;;1.00;0.60;;;;;;;-143.84;36.69;45066.22;5071739;28;21293;-62
2023/12/29 08:31:10;;;;;;;2.90;1.30;;;;;;;-143.84;36.62;45096.66;5071859;28;20444;-62
2023/12/29 08:33:37;;;;;;;1.30;1.20;;;;;;;-143.84;36.49;45089.06;5071738;28;20977;-61
2023/12/29 08:36:06;;;;;;;1.37;1.00;;;;;;;-143.84;36.17;45077.63;5071654;28;20500;-61
2023/12/29 08:38:33;;;;;;;1.37;1.27;;;;;;;-143.84;36.18;45060.50;5071342;28;20854;-62
2023/12/29 08:41:00;;;;;;;0.93;0.83;;;;;;;-143.84;36.26;45060.50;5071487;28;20440;-62
2023/12/29 08:43:29;;;;;;;3.03;1.90;;;;;;;-143.84;36.47;45079.53;5070785;28;20839;-62
2023/12/29 08:45:56;;;;;;;2.00;1.20;;;;;;;-143.84;36.17;45073.81;5070996;28;20448;-62
2023/12/29 08:48:25;;;;;;;5.43;1.20;;;;;;;-143.84;36.31;45052.88;5071162;28;20441;-62
2023/12/29 08:50:52;;;;;;;1.27;0.77;;;;;;;-143.84;35.99;45085.25;5071146;28;20432;-61
2023/12/29 08:53:19;;;;;;;2.17;0.73;;;;;;;-143.84;36.10;45066.22;5071366;28;20437;-62
2023/12/29 08:55:46;;;;;;;1.43;1.33;;;;;;;-143.84;36.37;45049.06;5070964;28;20506;-63
2023/12/29 08:58:14;;;;;;;1.00;0.70;;;;;;;-143.84;36.26;45052.88;5070965;28;20440;-62
2023/12/29 09:00:42;;;;;;;2.40;1.67;;;;;;;-143.84;35.75;45050.97;5070423;28;20483;-62
2023/12/29 09:03:09;;;;;;;1.00;0.90;;;;;;;-143.84;36.00;45049.06;5071349;28;20444;-61
2023/12/29 09:05:37;;;;;;;1.00;0.90;;;;;;;-143.84;35.91;45071.91;5070736;28;20827;-61
2023/12/29 09:08:04;;;;;;;2.07;1.67;;;;;;;-143.84;35.82;45075.72;5071197;28;20594;-62
2023/12/29 09:10:31;;;;;;;1.33;1.23;;;;;;;-143.84;35.73;45087.16;5070416;28;20468;-62
2023/12/29 09:12:58;;;;;;;1.33;1.23;;;;;;;-143.84;35.37;45049.06;5070527;28;20441;-62
2023/12/29 09:15:26;;;;;;;1.10;0.93;;;;;;;-143.84;35.23;45081.44;5070925;28;20464;-62
2023/12/29 09:17:54;;;;;;;2.17;1.83;;;;;;;-143.84;35.19;45054.78;5070227;28;20483;-62
2023/12/29 09:20:21;;;;;;;1.20;0.73;;;;;;;-143.84;34.97;45049.06;5070388;28;20860;-62
2023/12/29 09:22:48;;;;;;;0.90;0.73;;;;;;;-143.84;34.67;45041.44;5070250;28;20437;-63
2023/12/29 09:25:16;;;;;;;2.40;0.90;;;;;;;-143.84;34.38;45039.53;5070364;28;20563;-62
2023/12/29 09:27:43;;;;;;;1.40;1.20;;;;;;;-143.84;34.50;45028.13;5070272;28;20445;-62
2023/12/29 09:30:11;;;;;;;2.13;1.30;;;;;;;-143.84;34.37;45043.34;5069664;28;21204;-62
2023/12/29 09:32:38;;;;;;;2.33;1.50;;;;;;;-143.84;33.76;45049.06;5069638;28;20433;-61
2023/12/29 09:35:07;;;;;;;1.37;1.10;;;;;;;-143.84;33.48;45028.13;5070393;28;20441;-61
2023/12/29 09:37:35;;;;;;;1.87;1.60;;;;;;;-143.84;33.68;45037.66;5069947;28;20521;-61
2023/12/29 09:40:02;;;;;;;2.20;1.37;;;;;;;-143.84;34.24;45033.84;5070485;28;20529;-61
2023/12/29 09:42:31;;;;;;;2.97;1.43;;;;;;;-143.84;33.71;45018.59;5060410;28;20456;-61
2023/12/29 09:44:58;;;;;;;3.77;2.03;;;;;;;-143.84;33.17;45035.75;5066927;28;20473;-61
2023/12/29 09:47:26;;;;;;;3.00;1.87;;;;;;;-143.84;33.63;45014.78;5066995;28;20452;-61
2023/12/29 09:49:54;;;;;;;2.33;1.87;;;;;;;-143.84;33.85;45016.69;5052194;28;20499;-58
2023/12/29 09:52:24;;;;;;;3.53;1.97;;;;;;;-143.84;33.88;45014.78;5062393;28;20451;-58
2023/12/29 09:54:53;;;;;;;2.07;1.23;;;;;;;-143.84;33.69;45035.75;5070319;28;20452;-58
2023/12/29 09:57:20;;;;;;;1.73;1.63;;;;;;;-143.84;33.58;45035.75;5069143;28;20517;-58
2023/12/29 09:59:52;;;;;;;3.77;2.43;;;;;;;-143.84;33.91;45022.41;5069621;28;20443;-58
2023/12/29 10:02:22;;;;;;;3.37;2.30;;;;;;;-143.84;34.00;45022.41;5070076;28;20444;-58
2023/12/29 10:04:49;;;;;;;1.53;1.33;;;;;;;-143.84;34.48;45024.31;5069950;28;20515;-58
2023/12/29 10:07:22;;;;;;;2.03;1.93;;;;;;;-143.84;33.96;45030.03;5070520;28;20436;-58
2023/12/29 10:09:53;;;;;;;3.30;2.30;;;;;;;-143.84;35.42;45043.34;5069924;28;20793;-58
2023/12/29 10:12:21;;;;;;;4.20;2.20;;;;;;;-143.84;35.48;45037.66;5070465;28;20441;-58
2023/12/29 10:14:54;;;;;;;2.07;1.50;;;;;;;-143.84;35.76;45039.53;5069345;28;20441;-58
2023/12/29 10:17:33;;;;;;;2.60;2.23;;;;;;;-143.84;36.34;45047.16;5069503;28;20997;-58
2023/12/29 10:20:10;;;;;;;1.67;1.23;;;;;;;-143.84;36.42;45047.16;5061793;28;20441;-58
2023/12/29 10:22:48;;;;;;;3.47;2.30;;;;;;;-143.84;36.76;45024.31;5063819;28;20530;-58
2023/12/29 10:25:18;;;;;;;1.90;1.70;;;;;;;-143.84;36.54;45043.34;5066176;28;20487;-58
2023/12/29 10:27:45;;;;;;;6.30;3.33;;;;;;;-143.84;36.70;45028.13;5069329;28;20468;-58
2023/12/29 10:30:14;;;;;;;3.87;2.30;;;;;;;-143.84;36.51;45064.31;5066589;28;20437;-58
2023/12/29 10:32:41;;;;;;;2.70;1.93;;;;;;;-143.84;36.80;45031.94;5069175;28;21012;-58
2023/12/29 10:35:11;;;;;;;2.37;2.10;;;;;;;-143.84;36.80;45047.16;5068452;28;20937;-58
2023/12/29 10:37:38;;;;;;;3.43;3.13;;;;;;;-143.84;36.67;45035.75;5068364;28;20433;-58
2023/12/29 10:40:07;;;;;;;1.87;1.77;;;;;;;-143.84;36.73;45037.66;5066414;28;21031;-58
2023/12/29 10:42:35;;;;;;;4.30;2.40;;;;;;;-143.84;37.21;45045.25;5068960;28;20512;-57
2023/12/29 10:45:07;;;;;;;2.83;2.07;;;;;;;-143.84;37.46;45071.91;5069070;28;20491;-58
2023/12/29 10:47:38;;;;;;;2.50;2.40;;;;;;;-143.84;38.04;45058.59;5068544;28;20480;-59
2023/12/29 10:50:06;;;;;;;1.87;1.57;;;;;;;-143.84;38.46;45075.72;5068675;28;20473;-58
2023/12/29 10:52:34;;;;;;;1.43;1.33;;;;;;;-143.84;37.93;45031.94;5068228;28;20810;-58
2023/12/29 10:55:09;;;;;;;1.43;1.33;;;;;;;-143.84;38.39;45049.06;5066128;28;20534;-58
2023/12/29 10:57:38;;;;;;;4.50;2.67;;;;;;;-143.84;37.95;45041.44;5064524;28;20834;-58
2023/12/29 11:00:07;;;;;;;1.47;1.27;;;;;;;-143.84;37.35;45047.16;5065359;28;20464;-58
2023/12/29 11:02:35;;;;;;;2.53;2.07;;;;;;;-143.84;36.87;45035.75;5066386;28;20536;-58
2023/12/29 11:05:06;;;;;;;1.30;0.97;;;;;;;-143.84;36.64;45041.44;5077986;28;21065;-58
2023/12/29 11:07:34;;;;;;;2.67;1.90;;;;;;;-143.84;36.32;45018.59;5063795;28;20440;-58
2023/12/29 11:10:03;;;;;;;1.77;1.00;;;;;;;-143.84;35.96;45058.59;5068280;28;20486;-58
2023/12/29 11:12:33;;;;;;;1.23;1.13;;;;;;;-143.84;36.19;45052.88;5067791;28;20437;-58
2023/12/29 11:15:03;;;;;;;1.67;1.57;;;;;;;-143.84;36.16;45049.06;5068265;28;20464;-57
2023/12/29 11:17:32;;;;;;;2.67;1.33;;;;;;;-143.84;36.42;45026.22;5067957;28;20508;-58
2023/12/29 11:20:02;;;;;;;1.47;1.37;;;;;;;-143.84;36.39;45033.84;5072049;28;20437;-58